sensor_id;sensor_type;location;lat;lon;timestamp;P1;durP1;ratioP1;P2;durP2;ratioP2
28762;SDS011;15918;51.270;6.522;2024-02-28T00:00:50;40.17;;;33.95;;
28762;SDS011;15918;51.270;6.522;2024-02-28T00:03:16;41.85;;;34.33;;
28762;SDS011;15918;51.270;6.522;2024-02-28T00:05:42;41.17;;;34.08;;
28762;SDS011;15918;51.270;6.522;2024-02-28T00:08:08;40.90;;;35.33;;
28762;SDS011;15918;51.270;6.522;2024-02-28T00:10:33;40.72;;;34.65;;
28762;SDS011;15918;51.270;6.522;2024-02-28T00:12:59;38.92;;;34.75;;
28762;SDS011;15918;51.270;6.522;2024-02-28T00:15:24;38.58;;;34.15;;
28762;SDS011;15918;51.270;6.522;2024-02-28T00:17:51;41.88;;;35.05;;
28762;SDS011;15918;51.270;6.522;2024-02-28T00:20:18;38.38;;;33.03;;
28762;SDS011;15918;51.270;6.522;2024-02-28T00:22:44;39.95;;;34.67;;
28762;SDS011;15918;51.270;6.522;2024-02-28T00:25:09;40.13;;;34.33;;
28762;SDS011;15918;51.270;6.522;2024-02-28T00:27:36;40.40;;;34.53;;
28762;SDS011;15918;51.270;6.522;2024-02-28T00:30:05;41.95;;;35.30;;
28762;SDS011;15918;51.270;6.522;2024-02-28T00:32:31;39.65;;;34.17;;
28762;SDS011;15918;51.270;6.522;2024-02-28T00:34:57;41.28;;;35.40;;
28762;SDS011;15918;51.270;6.522;2024-02-28T00:37:23;38.95;;;33.10;;
28762;SDS011;15918;51.270;6.522;2024-02-28T00:39:49;42.92;;;35.75;;
28762;SDS011;15918;51.270;6.522;2024-02-28T00:42:14;42.95;;;35.15;;
28762;SDS011;15918;51.270;6.522;2024-02-28T00:44:40;39.00;;;34.78;;
28762;SDS011;15918;51.270;6.522;2024-02-28T00:47:07;40.90;;;34.78;;
28762;SDS011;15918;51.270;6.522;2024-02-28T00:49:33;37.50;;;33.42;;
28762;SDS011;15918;51.270;6.522;2024-02-28T00:52:00;42.65;;;35.67;;
28762;SDS011;15918;51.270;6.522;2024-02-28T00:54:25;40.88;;;34.58;;
28762;SDS011;15918;51.270;6.522;2024-02-28T00:56:51;39.90;;;34.42;;
28762;SDS011;15918;51.270;6.522;2024-02-28T00:59:17;39.55;;;33.88;;
28762;SDS011;15918;51.270;6.522;2024-02-28T01:01:42;38.42;;;32.63;;
28762;SDS011;15918;51.270;6.522;2024-02-28T01:04:08;36.60;;;32.65;;
28762;SDS011;15918;51.270;6.522;2024-02-28T01:06:34;39.83;;;34.05;;
28762;SDS011;15918;51.270;6.522;2024-02-28T01:08:59;39.67;;;34.28;;
28762;SDS011;15918;51.270;6.522;2024-02-28T01:11:25;37.17;;;31.02;;
28762;SDS011;15918;51.270;6.522;2024-02-28T01:13:50;38.88;;;32.80;;
28762;SDS011;15918;51.270;6.522;2024-02-28T01:16:16;40.35;;;34.42;;
28762;SDS011;15918;51.270;6.522;2024-02-28T01:18:42;40.75;;;35.20;;
28762;SDS011;15918;51.270;6.522;2024-02-28T01:21:07;37.47;;;32.67;;
28762;SDS011;15918;51.270;6.522;2024-02-28T01:23:33;41.42;;;33.80;;
28762;SDS011;15918;51.270;6.522;2024-02-28T01:25:58;36.05;;;32.20;;
28762;SDS011;15918;51.270;6.522;2024-02-28T01:28:24;38.20;;;31.75;;
28762;SDS011;15918;51.270;6.522;2024-02-28T01:30:50;37.95;;;31.70;;
28762;SDS011;15918;51.270;6.522;2024-02-28T01:33:16;38.63;;;33.00;;
28762;SDS011;15918;51.270;6.522;2024-02-28T01:35:41;38.55;;;32.85;;
28762;SDS011;15918;51.270;6.522;2024-02-28T01:38:07;41.88;;;32.05;;
28762;SDS011;15918;51.270;6.522;2024-02-28T01:40:33;38.40;;;32.47;;
28762;SDS011;15918;51.270;6.522;2024-02-28T01:43:16;39.00;;;33.08;;
28762;SDS011;15918;51.270;6.522;2024-02-28T01:45:42;36.80;;;32.17;;
28762;SDS011;15918;51.270;6.522;2024-02-28T01:48:11;37.70;;;31.70;;
28762;SDS011;15918;51.270;6.522;2024-02-28T01:50:37;35.92;;;30.63;;
28762;SDS011;15918;51.270;6.522;2024-02-28T01:53:03;38.28;;;32.83;;
28762;SDS011;15918;51.270;6.522;2024-02-28T01:55:31;35.88;;;31.80;;
28762;SDS011;15918;51.270;6.522;2024-02-28T01:57:57;35.70;;;31.30;;
28762;SDS011;15918;51.270;6.522;2024-02-28T02:00:23;40.10;;;34.20;;
28762;SDS011;15918;51.270;6.522;2024-02-28T02:02:50;36.63;;;31.73;;
28762;SDS011;15918;51.270;6.522;2024-02-28T02:05:16;41.25;;;34.90;;
28762;SDS011;15918;51.270;6.522;2024-02-28T02:07:45;45.95;;;37.60;;
28762;SDS011;15918;51.270;6.522;2024-02-28T02:10:13;49.65;;;39.28;;
28762;SDS011;15918;51.270;6.522;2024-02-28T02:12:39;54.88;;;41.78;;
28762;SDS011;15918;51.270;6.522;2024-02-28T02:15:04;56.05;;;43.78;;
28762;SDS011;15918;51.270;6.522;2024-02-28T02:17:30;57.80;;;47.03;;
28762;SDS011;15918;51.270;6.522;2024-02-28T02:19:56;66.95;;;49.83;;
28762;SDS011;15918;51.270;6.522;2024-02-28T02:22:21;66.40;;;49.92;;
28762;SDS011;15918;51.270;6.522;2024-02-28T02:24:52;70.25;;;52.28;;
28762;SDS011;15918;51.270;6.522;2024-02-28T02:27:17;66.28;;;51.17;;
28762;SDS011;15918;51.270;6.522;2024-02-28T02:29:43;65.13;;;52.17;;
28762;SDS011;15918;51.270;6.522;2024-02-28T02:32:08;68.85;;;53.22;;
28762;SDS011;15918;51.270;6.522;2024-02-28T02:34:34;70.63;;;55.58;;
28762;SDS011;15918;51.270;6.522;2024-02-28T02:37:00;74.00;;;57.72;;
28762;SDS011;15918;51.270;6.522;2024-02-28T02:39:25;73.80;;;58.40;;
28762;SDS011;15918;51.270;6.522;2024-02-28T02:41:51;74.10;;;59.08;;
28762;SDS011;15918;51.270;6.522;2024-02-28T02:44:16;73.05;;;60.05;;
28762;SDS011;15918;51.270;6.522;2024-02-28T02:46:42;73.22;;;60.50;;
28762;SDS011;15918;51.270;6.522;2024-02-28T02:49:08;76.38;;;62.05;;
28762;SDS011;15918;51.270;6.522;2024-02-28T02:51:33;78.95;;;63.55;;
28762;SDS011;15918;51.270;6.522;2024-02-28T02:53:59;72.50;;;62.50;;
28762;SDS011;15918;51.270;6.522;2024-02-28T02:56:25;77.28;;;63.67;;
28762;SDS011;15918;51.270;6.522;2024-02-28T02:58:50;79.60;;;65.40;;
28762;SDS011;15918;51.270;6.522;2024-02-28T03:01:16;76.38;;;62.90;;
28762;SDS011;15918;51.270;6.522;2024-02-28T03:03:42;78.20;;;63.35;;
28762;SDS011;15918;51.270;6.522;2024-02-28T03:06:07;79.18;;;66.78;;
28762;SDS011;15918;51.270;6.522;2024-02-28T03:08:34;76.10;;;65.82;;
28762;SDS011;15918;51.270;6.522;2024-02-28T03:11:00;78.18;;;64.72;;
28762;SDS011;15918;51.270;6.522;2024-02-28T03:13:26;78.15;;;65.13;;
28762;SDS011;15918;51.270;6.522;2024-02-28T03:15:51;81.72;;;67.57;;
28762;SDS011;15918;51.270;6.522;2024-02-28T03:18:17;75.32;;;65.15;;
28762;SDS011;15918;51.270;6.522;2024-02-28T03:20:42;74.07;;;65.60;;
28762;SDS011;15918;51.270;6.522;2024-02-28T03:23:08;72.03;;;62.25;;
28762;SDS011;15918;51.270;6.522;2024-02-28T03:25:34;73.80;;;64.68;;
28762;SDS011;15918;51.270;6.522;2024-02-28T03:28:00;71.20;;;62.35;;
28762;SDS011;15918;51.270;6.522;2024-02-28T03:30:26;73.18;;;63.00;;
28762;SDS011;15918;51.270;6.522;2024-02-28T03:32:52;69.40;;;60.90;;
28762;SDS011;15918;51.270;6.522;2024-02-28T03:35:17;72.55;;;61.70;;
28762;SDS011;15918;51.270;6.522;2024-02-28T03:37:43;71.35;;;62.58;;
28762;SDS011;15918;51.270;6.522;2024-02-28T03:40:08;75.65;;;63.97;;
28762;SDS011;15918;51.270;6.522;2024-02-28T03:42:34;72.30;;;62.95;;
28762;SDS011;15918;51.270;6.522;2024-02-28T03:45:00;77.25;;;64.85;;
28762;SDS011;15918;51.270;6.522;2024-02-28T03:47:25;76.32;;;65.13;;
28762;SDS011;15918;51.270;6.522;2024-02-28T03:49:51;76.25;;;66.35;;
28762;SDS011;15918;51.270;6.522;2024-02-28T03:52:17;78.25;;;67.15;;
28762;SDS011;15918;51.270;6.522;2024-02-28T03:54:43;78.13;;;65.65;;
28762;SDS011;15918;51.270;6.522;2024-02-28T03:57:09;78.85;;;67.40;;
28762;SDS011;15918;51.270;6.522;2024-02-28T03:59:34;77.00;;;66.47;;
28762;SDS011;15918;51.270;6.522;2024-02-28T04:02:00;82.05;;;69.00;;
28762;SDS011;15918;51.270;6.522;2024-02-28T04:04:25;77.95;;;67.57;;
28762;SDS011;15918;51.270;6.522;2024-02-28T04:06:51;80.60;;;67.38;;
28762;SDS011;15918;51.270;6.522;2024-02-28T04:09:17;79.47;;;68.03;;
28762;SDS011;15918;51.270;6.522;2024-02-28T04:11:42;79.93;;;66.68;;
28762;SDS011;15918;51.270;6.522;2024-02-28T04:14:08;83.40;;;68.20;;
28762;SDS011;15918;51.270;6.522;2024-02-28T04:16:34;85.15;;;68.82;;
28762;SDS011;15918;51.270;6.522;2024-02-28T04:18:59;87.28;;;71.40;;
28762;SDS011;15918;51.270;6.522;2024-02-28T04:21:25;83.63;;;69.60;;
28762;SDS011;15918;51.270;6.522;2024-02-28T04:23:51;85.68;;;70.95;;
28762;SDS011;15918;51.270;6.522;2024-02-28T04:26:16;88.97;;;72.38;;
28762;SDS011;15918;51.270;6.522;2024-02-28T04:28:42;89.20;;;71.78;;
28762;SDS011;15918;51.270;6.522;2024-02-28T04:31:07;90.75;;;73.85;;
28762;SDS011;15918;51.270;6.522;2024-02-28T04:33:34;88.78;;;72.63;;
28762;SDS011;15918;51.270;6.522;2024-02-28T04:36:01;91.38;;;73.88;;
28762;SDS011;15918;51.270;6.522;2024-02-28T04:38:26;93.32;;;76.88;;
28762;SDS011;15918;51.270;6.522;2024-02-28T04:40:52;90.53;;;73.05;;
28762;SDS011;15918;51.270;6.522;2024-02-28T04:43:17;88.03;;;72.28;;
28762;SDS011;15918;51.270;6.522;2024-02-28T04:45:43;84.68;;;71.18;;
28762;SDS011;15918;51.270;6.522;2024-02-28T04:48:09;85.93;;;71.18;;
28762;SDS011;15918;51.270;6.522;2024-02-28T04:50:34;85.28;;;68.53;;
28762;SDS011;15918;51.270;6.522;2024-02-28T04:53:00;79.35;;;67.47;;
28762;SDS011;15918;51.270;6.522;2024-02-28T04:55:26;79.18;;;67.13;;
28762;SDS011;15918;51.270;6.522;2024-02-28T04:57:52;83.05;;;69.22;;
28762;SDS011;15918;51.270;6.522;2024-02-28T05:00:17;75.13;;;65.03;;
28762;SDS011;15918;51.270;6.522;2024-02-28T05:02:45;76.43;;;65.57;;
28762;SDS011;15918;51.270;6.522;2024-02-28T05:05:11;80.35;;;68.18;;
28762;SDS011;15918;51.270;6.522;2024-02-28T05:07:37;77.60;;;66.00;;
28762;SDS011;15918;51.270;6.522;2024-02-28T05:10:02;76.38;;;66.00;;
28762;SDS011;15918;51.270;6.522;2024-02-28T05:12:28;79.20;;;66.75;;
28762;SDS011;15918;51.270;6.522;2024-02-28T05:14:53;78.75;;;66.53;;
28762;SDS011;15918;51.270;6.522;2024-02-28T05:17:19;77.55;;;66.20;;
28762;SDS011;15918;51.270;6.522;2024-02-28T05:19:45;75.47;;;64.35;;
28762;SDS011;15918;51.270;6.522;2024-02-28T05:22:10;80.50;;;66.22;;
28762;SDS011;15918;51.270;6.522;2024-02-28T05:24:36;83.85;;;67.90;;
28762;SDS011;15918;51.270;6.522;2024-02-28T05:27:02;82.30;;;67.63;;
28762;SDS011;15918;51.270;6.522;2024-02-28T05:29:27;81.35;;;67.57;;
28762;SDS011;15918;51.270;6.522;2024-02-28T05:31:53;78.32;;;66.70;;
28762;SDS011;15918;51.270;6.522;2024-02-28T05:34:19;77.60;;;65.97;;
28762;SDS011;15918;51.270;6.522;2024-02-28T05:36:45;76.18;;;64.68;;
28762;SDS011;15918;51.270;6.522;2024-02-28T05:39:10;80.40;;;65.47;;
28762;SDS011;15918;51.270;6.522;2024-02-28T05:41:36;80.45;;;65.90;;
28762;SDS011;15918;51.270;6.522;2024-02-28T05:44:01;78.32;;;66.15;;
28762;SDS011;15918;51.270;6.522;2024-02-28T05:46:27;79.40;;;63.75;;
28762;SDS011;15918;51.270;6.522;2024-02-28T05:48:53;73.40;;;62.58;;
28762;SDS011;15918;51.270;6.522;2024-02-28T05:51:18;73.82;;;62.42;;
28762;SDS011;15918;51.270;6.522;2024-02-28T05:53:44;77.53;;;64.45;;
28762;SDS011;15918;51.270;6.522;2024-02-28T05:56:10;74.40;;;62.65;;
28762;SDS011;15918;51.270;6.522;2024-02-28T05:58:39;77.50;;;64.93;;
28762;SDS011;15918;51.270;6.522;2024-02-28T06:01:06;78.50;;;63.65;;
28762;SDS011;15918;51.270;6.522;2024-02-28T06:03:32;76.25;;;61.97;;
28762;SDS011;15918;51.270;6.522;2024-02-28T06:05:58;77.15;;;63.92;;
28762;SDS011;15918;51.270;6.522;2024-02-28T06:08:23;76.60;;;63.22;;
28762;SDS011;15918;51.270;6.522;2024-02-28T06:10:49;75.88;;;61.65;;
28762;SDS011;15918;51.270;6.522;2024-02-28T06:13:17;80.30;;;64.97;;
28762;SDS011;15918;51.270;6.522;2024-02-28T06:15:43;75.70;;;61.50;;
28762;SDS011;15918;51.270;6.522;2024-02-28T06:18:08;79.35;;;64.10;;
28762;SDS011;15918;51.270;6.522;2024-02-28T06:20:34;79.88;;;62.80;;
28762;SDS011;15918;51.270;6.522;2024-02-28T06:23:00;83.93;;;65.30;;
28762;SDS011;15918;51.270;6.522;2024-02-28T06:25:25;81.60;;;63.90;;
28762;SDS011;15918;51.270;6.522;2024-02-28T06:27:53;82.35;;;64.28;;
28762;SDS011;15918;51.270;6.522;2024-02-28T06:30:18;85.57;;;65.20;;
28762;SDS011;15918;51.270;6.522;2024-02-28T06:32:44;89.47;;;67.95;;
28762;SDS011;15918;51.270;6.522;2024-02-28T06:35:09;89.00;;;67.47;;
28762;SDS011;15918;51.270;6.522;2024-02-28T06:37:35;95.70;;;69.30;;
28762;SDS011;15918;51.270;6.522;2024-02-28T06:40:01;93.25;;;67.75;;
28762;SDS011;15918;51.270;6.522;2024-02-28T06:42:34;88.75;;;65.63;;
28762;SDS011;15918;51.270;6.522;2024-02-28T06:45:01;90.93;;;66.60;;
28762;SDS011;15918;51.270;6.522;2024-02-28T06:47:27;92.60;;;69.85;;
28762;SDS011;15918;51.270;6.522;2024-02-28T06:49:53;90.72;;;65.85;;
28762;SDS011;15918;51.270;6.522;2024-02-28T06:52:18;92.68;;;68.30;;
28762;SDS011;15918;51.270;6.522;2024-02-28T06:54:44;92.28;;;67.22;;
28762;SDS011;15918;51.270;6.522;2024-02-28T06:57:10;89.65;;;65.72;;
28762;SDS011;15918;51.270;6.522;2024-02-28T06:59:36;95.68;;;67.35;;
28762;SDS011;15918;51.270;6.522;2024-02-28T07:02:02;90.35;;;68.05;;
28762;SDS011;15918;51.270;6.522;2024-02-28T07:04:27;94.85;;;67.90;;
28762;SDS011;15918;51.270;6.522;2024-02-28T07:06:53;96.40;;;68.57;;
28762;SDS011;15918;51.270;6.522;2024-02-28T07:09:18;96.88;;;67.93;;
28762;SDS011;15918;51.270;6.522;2024-02-28T07:11:44;96.55;;;67.68;;
28762;SDS011;15918;51.270;6.522;2024-02-28T07:14:10;101.15;;;70.07;;
28762;SDS011;15918;51.270;6.522;2024-02-28T07:16:35;101.75;;;70.35;;
28762;SDS011;15918;51.270;6.522;2024-02-28T07:19:01;103.25;;;71.78;;
28762;SDS011;15918;51.270;6.522;2024-02-28T07:21:27;101.40;;;68.38;;
28762;SDS011;15918;51.270;6.522;2024-02-28T07:23:52;105.22;;;70.68;;
28762;SDS011;15918;51.270;6.522;2024-02-28T07:26:19;101.30;;;70.95;;
28762;SDS011;15918;51.270;6.522;2024-02-28T07:28:44;103.82;;;69.47;;
28762;SDS011;15918;51.270;6.522;2024-02-28T07:31:17;109.47;;;72.88;;
28762;SDS011;15918;51.270;6.522;2024-02-28T07:33:44;102.28;;;71.25;;
28762;SDS011;15918;51.270;6.522;2024-02-28T07:36:10;110.18;;;72.25;;
28762;SDS011;15918;51.270;6.522;2024-02-28T07:38:36;116.15;;;74.72;;
28762;SDS011;15918;51.270;6.522;2024-02-28T07:41:01;109.40;;;72.82;;
28762;SDS011;15918;51.270;6.522;2024-02-28T07:43:27;112.18;;;72.35;;
28762;SDS011;15918;51.270;6.522;2024-02-28T07:45:57;106.75;;;72.45;;
28762;SDS011;15918;51.270;6.522;2024-02-28T07:48:25;107.20;;;71.43;;
28762;SDS011;15918;51.270;6.522;2024-02-28T07:50:51;103.65;;;70.72;;
28762;SDS011;15918;51.270;6.522;2024-02-28T07:53:17;109.13;;;73.80;;
28762;SDS011;15918;51.270;6.522;2024-02-28T07:55:42;104.75;;;70.00;;
28762;SDS011;15918;51.270;6.522;2024-02-28T07:58:08;103.25;;;70.25;;
28762;SDS011;15918;51.270;6.522;2024-02-28T08:00:34;96.32;;;67.47;;
28762;SDS011;15918;51.270;6.522;2024-02-28T08:03:00;103.18;;;69.80;;
28762;SDS011;15918;51.270;6.522;2024-02-28T08:05:26;95.72;;;68.10;;
28762;SDS011;15918;51.270;6.522;2024-02-28T08:07:52;100.38;;;71.30;;
28762;SDS011;15918;51.270;6.522;2024-02-28T08:10:17;94.60;;;65.75;;
28762;SDS011;15918;51.270;6.522;2024-02-28T08:12:43;91.53;;;63.60;;
28762;SDS011;15918;51.270;6.522;2024-02-28T08:15:09;88.25;;;63.42;;
28762;SDS011;15918;51.270;6.522;2024-02-28T08:17:34;92.30;;;64.05;;
28762;SDS011;15918;51.270;6.522;2024-02-28T08:20:01;94.53;;;65.25;;
28762;SDS011;15918;51.270;6.522;2024-02-28T08:22:29;93.65;;;66.03;;
28762;SDS011;15918;51.270;6.522;2024-02-28T08:24:55;96.03;;;66.25;;
28762;SDS011;15918;51.270;6.522;2024-02-28T08:27:21;86.57;;;62.10;;
28762;SDS011;15918;51.270;6.522;2024-02-28T08:29:48;94.25;;;66.53;;
28762;SDS011;15918;51.270;6.522;2024-02-28T08:32:17;94.05;;;64.10;;
28762;SDS011;15918;51.270;6.522;2024-02-28T08:34:44;89.15;;;64.90;;
28762;SDS011;15918;51.270;6.522;2024-02-28T08:37:14;86.70;;;62.00;;
28762;SDS011;15918;51.270;6.522;2024-02-28T08:39:40;87.65;;;63.72;;
28762;SDS011;15918;51.270;6.522;2024-02-28T08:42:05;90.35;;;64.50;;
28762;SDS011;15918;51.270;6.522;2024-02-28T08:44:31;91.80;;;65.07;;
28762;SDS011;15918;51.270;6.522;2024-02-28T08:46:57;87.15;;;61.88;;
28762;SDS011;15918;51.270;6.522;2024-02-28T08:49:22;84.85;;;62.75;;
28762;SDS011;15918;51.270;6.522;2024-02-28T08:51:48;89.63;;;62.50;;
28762;SDS011;15918;51.270;6.522;2024-02-28T08:54:13;92.75;;;65.13;;
28762;SDS011;15918;51.270;6.522;2024-02-28T08:56:39;96.38;;;65.25;;
28762;SDS011;15918;51.270;6.522;2024-02-28T08:59:05;94.00;;;64.95;;
28762;SDS011;15918;51.270;6.522;2024-02-28T09:01:30;94.00;;;66.90;;
28762;SDS011;15918;51.270;6.522;2024-02-28T09:03:56;88.35;;;63.60;;
28762;SDS011;15918;51.270;6.522;2024-02-28T09:06:21;86.82;;;62.05;;
28762;SDS011;15918;51.270;6.522;2024-02-28T09:08:47;87.53;;;61.25;;
28762;SDS011;15918;51.270;6.522;2024-02-28T09:11:12;82.35;;;61.22;;
28762;SDS011;15918;51.270;6.522;2024-02-28T09:13:38;92.03;;;62.58;;
28762;SDS011;15918;51.270;6.522;2024-02-28T09:16:04;88.13;;;61.65;;
28762;SDS011;15918;51.270;6.522;2024-02-28T09:18:29;84.38;;;61.33;;
28762;SDS011;15918;51.270;6.522;2024-02-28T09:20:55;82.80;;;58.92;;
28762;SDS011;15918;51.270;6.522;2024-02-28T09:23:20;79.20;;;59.80;;
28762;SDS011;15918;51.270;6.522;2024-02-28T09:25:46;89.22;;;62.72;;
28762;SDS011;15918;51.270;6.522;2024-02-28T09:28:12;82.88;;;58.63;;
28762;SDS011;15918;51.270;6.522;2024-02-28T09:30:40;86.63;;;63.10;;
28762;SDS011;15918;51.270;6.522;2024-02-28T09:33:05;86.85;;;63.58;;
28762;SDS011;15918;51.270;6.522;2024-02-28T09:35:31;86.70;;;62.38;;
28762;SDS011;15918;51.270;6.522;2024-02-28T09:37:57;90.82;;;61.92;;
28762;SDS011;15918;51.270;6.522;2024-02-28T09:40:23;86.38;;;62.20;;
28762;SDS011;15918;51.270;6.522;2024-02-28T09:42:51;81.55;;;59.30;;
28762;SDS011;15918;51.270;6.522;2024-02-28T09:45:19;83.63;;;61.72;;
28762;SDS011;15918;51.270;6.522;2024-02-28T09:47:46;85.30;;;61.65;;
28762;SDS011;15918;51.270;6.522;2024-02-28T09:50:12;91.63;;;64.40;;
28762;SDS011;15918;51.270;6.522;2024-02-28T09:52:38;92.53;;;63.75;;
28762;SDS011;15918;51.270;6.522;2024-02-28T09:55:04;88.60;;;63.13;;
28762;SDS011;15918;51.270;6.522;2024-02-28T09:57:30;93.47;;;63.38;;
28762;SDS011;15918;51.270;6.522;2024-02-28T09:59:57;93.03;;;65.00;;
28762;SDS011;15918;51.270;6.522;2024-02-28T10:02:25;86.13;;;61.97;;
28762;SDS011;15918;51.270;6.522;2024-02-28T10:04:52;84.55;;;59.75;;
28762;SDS011;15918;51.270;6.522;2024-02-28T10:07:18;82.82;;;58.50;;
28762;SDS011;15918;51.270;6.522;2024-02-28T10:09:43;82.80;;;58.55;;
28762;SDS011;15918;51.270;6.522;2024-02-28T10:12:09;82.43;;;59.65;;
28762;SDS011;15918;51.270;6.522;2024-02-28T10:14:35;84.10;;;59.03;;
28762;SDS011;15918;51.270;6.522;2024-02-28T10:17:01;81.35;;;57.83;;
28762;SDS011;15918;51.270;6.522;2024-02-28T10:19:26;87.82;;;62.00;;
28762;SDS011;15918;51.270;6.522;2024-02-28T10:21:52;81.68;;;58.42;;
28762;SDS011;15918;51.270;6.522;2024-02-28T10:24:18;83.35;;;59.08;;
28762;SDS011;15918;51.270;6.522;2024-02-28T10:26:44;82.30;;;58.63;;
28762;SDS011;15918;51.270;6.522;2024-02-28T10:29:13;82.53;;;58.80;;
28762;SDS011;15918;51.270;6.522;2024-02-28T10:31:38;86.05;;;59.90;;
28762;SDS011;15918;51.270;6.522;2024-02-28T10:34:06;78.70;;;56.00;;
28762;SDS011;15918;51.270;6.522;2024-02-28T10:36:33;74.93;;;55.83;;
28762;SDS011;15918;51.270;6.522;2024-02-28T10:38:59;83.80;;;57.70;;
28762;SDS011;15918;51.270;6.522;2024-02-28T10:41:26;78.72;;;55.10;;
28762;SDS011;15918;51.270;6.522;2024-02-28T10:43:53;74.28;;;55.03;;
28762;SDS011;15918;51.270;6.522;2024-02-28T10:46:22;83.85;;;56.55;;
28762;SDS011;15918;51.270;6.522;2024-02-28T10:48:49;75.18;;;52.53;;
28762;SDS011;15918;51.270;6.522;2024-02-28T10:51:16;75.85;;;54.22;;
28762;SDS011;15918;51.270;6.522;2024-02-28T10:53:49;77.80;;;54.55;;
28762;SDS011;15918;51.270;6.522;2024-02-28T10:56:19;67.25;;;51.25;;
28762;SDS011;15918;51.270;6.522;2024-02-28T10:58:51;71.13;;;52.08;;
28762;SDS011;15918;51.270;6.522;2024-02-28T11:01:18;69.03;;;50.42;;
28762;SDS011;15918;51.270;6.522;2024-02-28T11:03:44;72.68;;;51.05;;
28762;SDS011;15918;51.270;6.522;2024-02-28T11:06:16;71.80;;;52.40;;
28762;SDS011;15918;51.270;6.522;2024-02-28T11:08:46;68.82;;;49.03;;
28762;SDS011;15918;51.270;6.522;2024-02-28T11:11:19;68.68;;;50.83;;
28762;SDS011;15918;51.270;6.522;2024-02-28T11:13:58;68.40;;;50.97;;
28762;SDS011;15918;51.270;6.522;2024-02-28T11:16:32;65.07;;;50.33;;
28762;SDS011;15918;51.270;6.522;2024-02-28T11:18:58;68.70;;;51.38;;
28762;SDS011;15918;51.270;6.522;2024-02-28T11:21:25;70.40;;;50.75;;
28762;SDS011;15918;51.270;6.522;2024-02-28T11:23:51;66.70;;;48.72;;
28762;SDS011;15918;51.270;6.522;2024-02-28T11:26:21;69.05;;;49.88;;
28762;SDS011;15918;51.270;6.522;2024-02-28T11:28:47;71.22;;;52.10;;
28762;SDS011;15918;51.270;6.522;2024-02-28T11:31:13;71.68;;;53.15;;
28762;SDS011;15918;51.270;6.522;2024-02-28T11:33:38;69.45;;;51.70;;
28762;SDS011;15918;51.270;6.522;2024-02-28T11:36:04;68.82;;;50.53;;
28762;SDS011;15918;51.270;6.522;2024-02-28T11:38:31;67.43;;;50.97;;
28762;SDS011;15918;51.270;6.522;2024-02-28T11:41:02;65.78;;;47.03;;
28762;SDS011;15918;51.270;6.522;2024-02-28T11:43:30;62.85;;;46.97;;
28762;SDS011;15918;51.270;6.522;2024-02-28T11:46:02;62.03;;;47.20;;
28762;SDS011;15918;51.270;6.522;2024-02-28T11:48:34;64.70;;;46.38;;
28762;SDS011;15918;51.270;6.522;2024-02-28T11:51:00;60.28;;;45.65;;
28762;SDS011;15918;51.270;6.522;2024-02-28T11:53:26;59.97;;;45.17;;
28762;SDS011;15918;51.270;6.522;2024-02-28T11:55:52;56.78;;;42.85;;
28762;SDS011;15918;51.270;6.522;2024-02-28T11:58:18;59.05;;;44.15;;
28762;SDS011;15918;51.270;6.522;2024-02-28T12:00:48;54.45;;;42.10;;
28762;SDS011;15918;51.270;6.522;2024-02-28T12:03:21;54.25;;;42.00;;
28762;SDS011;15918;51.270;6.522;2024-02-28T12:05:51;54.75;;;41.00;;
28762;SDS011;15918;51.270;6.522;2024-02-28T12:08:18;60.60;;;43.55;;
28762;SDS011;15918;51.270;6.522;2024-02-28T12:10:46;58.08;;;40.15;;
28762;SDS011;15918;51.270;6.522;2024-02-28T12:13:15;51.38;;;39.13;;
28762;SDS011;15918;51.270;6.522;2024-02-28T12:15:45;51.10;;;39.97;;
28762;SDS011;15918;51.270;6.522;2024-02-28T12:18:12;58.10;;;41.17;;
28762;SDS011;15918;51.270;6.522;2024-02-28T12:20:40;54.03;;;40.92;;
28762;SDS011;15918;51.270;6.522;2024-02-28T12:23:06;50.88;;;39.03;;
28762;SDS011;15918;51.270;6.522;2024-02-28T12:25:33;54.40;;;40.00;;
28762;SDS011;15918;51.270;6.522;2024-02-28T12:27:59;52.50;;;39.25;;
28762;SDS011;15918;51.270;6.522;2024-02-28T12:30:26;53.35;;;39.63;;
28762;SDS011;15918;51.270;6.522;2024-02-28T12:32:51;48.80;;;36.97;;
28762;SDS011;15918;51.270;6.522;2024-02-28T12:35:17;50.90;;;39.05;;
28762;SDS011;15918;51.270;6.522;2024-02-28T12:37:42;49.47;;;37.05;;
28762;SDS011;15918;51.270;6.522;2024-02-28T12:40:08;51.38;;;37.97;;
28762;SDS011;15918;51.270;6.522;2024-02-28T12:42:34;46.55;;;36.75;;
28762;SDS011;15918;51.270;6.522;2024-02-28T12:45:01;48.85;;;37.63;;
28762;SDS011;15918;51.270;6.522;2024-02-28T12:47:27;48.38;;;36.88;;
28762;SDS011;15918;51.270;6.522;2024-02-28T12:49:53;46.85;;;34.95;;
28762;SDS011;15918;51.270;6.522;2024-02-28T12:52:19;49.55;;;36.28;;
28762;SDS011;15918;51.270;6.522;2024-02-28T12:54:45;48.45;;;35.90;;
28762;SDS011;15918;51.270;6.522;2024-02-28T12:57:10;42.10;;;34.78;;
28762;SDS011;15918;51.270;6.522;2024-02-28T12:59:38;46.40;;;34.85;;
28762;SDS011;15918;51.270;6.522;2024-02-28T13:02:05;50.33;;;36.28;;
28762;SDS011;15918;51.270;6.522;2024-02-28T13:04:31;46.83;;;35.25;;
28762;SDS011;15918;51.270;6.522;2024-02-28T13:06:57;47.38;;;35.10;;
28762;SDS011;15918;51.270;6.522;2024-02-28T13:09:22;43.60;;;34.03;;
28762;SDS011;15918;51.270;6.522;2024-02-28T13:11:48;43.20;;;34.97;;
28762;SDS011;15918;51.270;6.522;2024-02-28T13:14:14;48.92;;;34.92;;
28762;SDS011;15918;51.270;6.522;2024-02-28T13:16:40;47.92;;;35.10;;
28762;SDS011;15918;51.270;6.522;2024-02-28T13:19:05;40.83;;;32.83;;
28762;SDS011;15918;51.270;6.522;2024-02-28T13:21:31;44.38;;;33.60;;
28762;SDS011;15918;51.270;6.522;2024-02-28T13:23:57;45.40;;;34.97;;
28762;SDS011;15918;51.270;6.522;2024-02-28T13:26:23;41.97;;;32.72;;
28762;SDS011;15918;51.270;6.522;2024-02-28T13:28:49;42.65;;;33.33;;
28762;SDS011;15918;51.270;6.522;2024-02-28T13:31:15;45.28;;;33.97;;
28762;SDS011;15918;51.270;6.522;2024-02-28T13:33:41;42.92;;;32.95;;
28762;SDS011;15918;51.270;6.522;2024-02-28T13:36:07;43.53;;;32.30;;
28762;SDS011;15918;51.270;6.522;2024-02-28T13:38:32;42.92;;;32.13;;
28762;SDS011;15918;51.270;6.522;2024-02-28T13:40:58;48.03;;;32.72;;
28762;SDS011;15918;51.270;6.522;2024-02-28T13:43:24;42.28;;;32.10;;
28762;SDS011;15918;51.270;6.522;2024-02-28T13:45:50;42.60;;;31.95;;
28762;SDS011;15918;51.270;6.522;2024-02-28T13:48:17;43.05;;;33.25;;
28762;SDS011;15918;51.270;6.522;2024-02-28T13:50:45;45.60;;;32.25;;
28762;SDS011;15918;51.270;6.522;2024-02-28T13:53:12;42.75;;;31.75;;
28762;SDS011;15918;51.270;6.522;2024-02-28T13:55:39;37.95;;;30.58;;
28762;SDS011;15918;51.270;6.522;2024-02-28T13:58:05;39.40;;;30.98;;
28762;SDS011;15918;51.270;6.522;2024-02-28T14:00:31;38.67;;;30.50;;
28762;SDS011;15918;51.270;6.522;2024-02-28T14:02:57;39.17;;;31.02;;
28762;SDS011;15918;51.270;6.522;2024-02-28T14:05:23;41.50;;;31.50;;
28762;SDS011;15918;51.270;6.522;2024-02-28T14:07:49;39.55;;;30.25;;
28762;SDS011;15918;51.270;6.522;2024-02-28T14:10:14;39.28;;;30.90;;
28762;SDS011;15918;51.270;6.522;2024-02-28T14:12:41;40.25;;;30.58;;
28762;SDS011;15918;51.270;6.522;2024-02-28T14:15:06;39.97;;;30.50;;